Time;durP1;ratioP1;P1;durP2;ratioP2;P2;SDS_P1;SDS_P2;PMS_P1;PMS_P2;Temp;Humidity;BMP_temperature;BMP_pressure;BME280_temperature;BME280_humidity;BME280_pressure;Samples;Min_cycle;Max_cycle;Signal;HPM_P1;HPM_P2
2023/08/01 00:00:29;;;;;;;10.93;9.82;;;;;;;16.04;100.00;99822.56;5030534;28;20033;-77
2023/08/01 00:02:54;;;;;;;10.95;9.85;;;;;;;16.06;100.00;99815.25;5028911;28;20574;-77
2023/08/01 00:05:20;;;;;;;12.52;9.50;;;;;;;16.03;100.00;99812.97;5012518;28;20045;-79
2023/08/01 00:07:45;;;;;;;10.25;9.10;;;;;;;15.98;100.00;99810.78;5026088;28;20056;-77
2023/08/01 00:10:10;;;;;;;10.90;8.75;;;;;;;15.99;100.00;99809.78;5028930;28;20061;-77
2023/08/01 00:12:36;;;;;;;10.13;9.13;;;;;;;15.94;100.00;99804.19;5010498;28;20119;-77
2023/08/01 00:15:01;;;;;;;9.90;8.55;;;;;;;15.93;100.00;99794.56;5027760;28;20064;-77
2023/08/01 00:17:27;;;;;;;9.63;8.63;;;;;;;15.90;100.00;99794.09;5029836;28;20303;-77
2023/08/01 00:19:52;;;;;;;11.35;8.77;;;;;;;15.88;100.00;99806.72;5007634;28;20094;-78
2023/08/01 00:22:18;;;;;;;12.88;9.00;;;;;;;15.85;100.00;99815.03;5028941;28;20033;-77
2023/08/01 00:24:43;;;;;;;12.02;8.90;;;;;;;15.83;100.00;99815.19;5029221;28;20079;-77
2023/08/01 00:27:10;;;;;;;11.75;9.15;;;;;;;15.80;100.00;99804.94;5029149;28;20489;-77
2023/08/01 00:29:35;;;;;;;13.65;9.27;;;;;;;15.79;100.00;99802.44;5017843;28;20021;-77
2023/08/01 00:32:01;;;;;;;11.20;8.95;;;;;;;15.80;100.00;99798.81;5029899;28;20052;-77
2023/08/01 00:34:26;;;;;;;12.95;8.75;;;;;;;15.77;100.00;99793.84;5011277;28;20112;-77
2023/08/01 00:36:51;;;;;;;13.48;9.30;;;;;;;15.75;100.00;99790.53;5028677;28;20405;-77
2023/08/01 00:39:17;;;;;;;13.55;9.77;;;;;;;15.73;100.00;99787.22;5025523;28;20075;-77
2023/08/01 00:41:42;;;;;;;12.32;9.20;;;;;;;15.72;100.00;99796.19;5029106;28;20029;-77
2023/08/01 00:44:08;;;;;;;13.50;9.88;;;;;;;15.69;100.00;99797.38;5028648;28;20106;-77
2023/08/01 00:46:33;;;;;;;14.75;9.50;;;;;;;15.69;100.00;99796.53;5029791;28;20103;-77
2023/08/01 00:49:00;;;;;;;11.15;9.57;;;;;;;15.64;100.00;99795.22;5011332;28;20109;-77
2023/08/01 00:51:26;;;;;;;14.30;9.55;;;;;;;15.61;100.00;99789.44;5028404;28;20026;-77
2023/08/01 00:53:52;;;;;;;11.95;8.90;;;;;;;15.56;100.00;99791.72;5011304;28;20029;-77
2023/08/01 00:56:18;;;;;;;10.90;8.30;;;;;;;15.54;100.00;99799.03;5021429;28;20030;-76
2023/08/01 00:58:43;;;;;;;10.48;8.60;;;;;;;15.49;100.00;99794.25;5009671;28;20037;-76
2023/08/01 01:01:09;;;;;;;12.10;8.70;;;;;;;15.49;100.00;99796.88;5024712;28;20029;-77
2023/08/01 01:03:36;;;;;;;17.35;8.35;;;;;;;15.47;100.00;99798.06;5023502;28;20029;-77
2023/08/01 01:06:15;;;;;;;13.15;8.30;;;;;;;15.42;100.00;99789.78;4992648;28;20057;-76
2023/08/01 01:08:43;;;;;;;13.80;8.80;;;;;;;15.40;100.00;99784.66;5009642;28;20048;-77
2023/08/01 01:11:09;;;;;;;13.77;7.72;;;;;;;15.39;100.00;99790.13;5008406;28;20028;-77
2023/08/01 01:13:34;;;;;;;10.85;7.82;;;;;;;15.35;100.00;99787.81;4987618;28;20030;-77
2023/08/01 01:15:59;;;;;;;11.55;8.23;;;;;;;15.33;100.00;99778.41;5007805;28;20113;-77
2023/08/01 01:18:25;;;;;;;10.88;7.95;;;;;;;15.33;100.00;99783.69;5009132;28;20069;-77
2023/08/01 01:20:51;;;;;;;13.88;8.75;;;;;;;15.26;100.00;99793.31;5008364;28;20025;-76
2023/08/01 01:23:17;;;;;;;13.45;8.77;;;;;;;15.22;100.00;99789.38;5007970;28;20025;-76
2023/08/01 01:25:43;;;;;;;15.65;8.48;;;;;;;15.20;100.00;99786.03;5008294;28;20072;-77
2023/08/01 01:28:10;;;;;;;14.52;8.10;;;;;;;15.15;100.00;99788.34;5006978;28;20473;-76
2023/08/01 01:30:35;;;;;;;13.85;8.25;;;;;;;15.12;100.00;99788.69;5004931;28;20032;-77
2023/08/01 01:33:02;;;;;;;14.32;8.25;;;;;;;15.09;100.00;99791.69;5008520;28;20124;-76
2023/08/01 01:35:27;;;;;;;12.00;7.80;;;;;;;15.05;100.00;99788.56;5008659;28;20172;-76
2023/08/01 01:37:52;;;;;;;14.32;7.75;;;;;;;15.02;100.00;99787.06;5009052;28;20026;-77
2023/08/01 01:40:18;;;;;;;12.13;7.47;;;;;;;15.03;100.00;99780.78;4986303;28;20022;-76
2023/08/01 01:42:44;;;;;;;16.30;8.15;;;;;;;15.00;100.00;99786.41;4997662;28;20029;-76
2023/08/01 01:45:09;;;;;;;12.13;7.72;;;;;;;14.97;100.00;99784.09;4988980;28;20113;-77
2023/08/01 01:47:35;;;;;;;14.25;8.55;;;;;;;14.95;100.00;99774.66;4989925;28;20030;-76
2023/08/01 01:50:00;;;;;;;13.65;8.45;;;;;;;14.93;100.00;99777.47;4994279;28;20017;-78
2023/08/01 01:52:26;;;;;;;16.00;9.07;;;;;;;14.90;100.00;99780.47;5012363;28;20470;-76
2023/08/01 01:54:51;;;;;;;15.00;8.65;;;;;;;14.85;100.00;99774.03;5013138;28;20449;-76
2023/08/01 01:57:16;;;;;;;16.98;9.10;;;;;;;14.82;100.00;99769.88;5011719;28;20370;-76
2023/08/01 01:59:42;;;;;;;15.70;9.65;;;;;;;14.81;100.00;99776.19;5013243;28;20030;-77
2023/08/01 02:02:10;;;;;;;12.25;9.63;;;;;;;14.80;100.00;99779.78;4988193;28;20498;-77
2023/08/01 02:04:35;;;;;;;17.38;9.60;;;;;;;14.75;100.00;99784.75;4999690;28;20630;-77
2023/08/01 02:07:01;;;;;;;16.50;10.52;;;;;;;14.72;100.00;99777.16;5015411;28;20060;-77
2023/08/01 02:09:26;;;;;;;16.10;10.38;;;;;;;14.69;100.00;99780.13;5031100;28;20891;-77
2023/08/01 02:11:52;;;;;;;19.85;11.07;;;;;;;14.65;100.00;99781.47;5013409;28;20120;-77
2023/08/01 02:14:17;;;;;;;19.75;11.18;;;;;;;14.63;100.00;99773.69;5032294;28;20025;-77
2023/08/01 02:16:42;;;;;;;20.60;12.45;;;;;;;14.60;100.00;99779.31;5032192;28;20439;-77
2023/08/01 02:19:08;;;;;;;20.17;12.55;;;;;;;14.56;100.00;99780.63;5023760;28;20053;-77
2023/08/01 02:21:33;;;;;;;20.58;13.18;;;;;;;14.54;100.00;99779.97;5028872;28;20041;-77
2023/08/01 02:23:58;;;;;;;24.48;14.00;;;;;;;14.53;100.00;99780.16;5032216;28;20067;-77
2023/08/01 02:26:24;;;;;;;23.52;14.98;;;;;;;14.51;100.00;99776.84;5031120;28;20033;-77
2023/08/01 02:28:50;;;;;;;20.55;14.77;;;;;;;14.50;100.00;99780.47;5020466;28;20030;-77
2023/08/01 02:31:16;;;;;;;20.23;15.07;;;;;;;14.51;100.00;99780.31;5012898;28;20037;-76
2023/08/01 02:33:42;;;;;;;24.98;16.90;;;;;;;14.51;100.00;99777.66;4994335;28;20057;-76
2023/08/01 02:36:10;;;;;;;24.60;16.70;;;;;;;14.50;100.00;99788.41;5010967;28;20064;-76
2023/08/01 02:38:35;;;;;;;24.77;16.75;;;;;;;14.51;100.00;99784.78;5012450;28;20490;-76
2023/08/01 02:41:00;;;;;;;25.27;17.10;;;;;;;14.52;100.00;99791.72;5011517;28;20527;-76
2023/08/01 02:43:26;;;;;;;23.42;16.23;;;;;;;14.55;100.00;99791.41;5022602;28;20057;-76
2023/08/01 02:45:51;;;;;;;24.73;17.30;;;;;;;14.55;100.00;99794.88;5030512;28;20033;-76
2023/08/01 02:48:16;;;;;;;22.25;16.75;;;;;;;14.55;100.00;99797.53;5030486;28;20078;-76
2023/08/01 02:50:42;;;;;;;25.80;17.27;;;;;;;14.57;100.00;99800.00;5030404;28;20056;-76
2023/08/01 02:53:08;;;;;;;24.95;16.25;;;;;;;14.57;100.00;99805.28;5029098;28;20048;-76
2023/08/01 02:55:33;;;;;;;25.92;18.02;;;;;;;14.58;100.00;99809.59;5010315;28;20065;-76
2023/08/01 02:57:58;;;;;;;25.38;18.00;;;;;;;14.58;100.00;99804.31;5029405;28;20116;-76
2023/08/01 03:00:25;;;;;;;33.28;18.52;;;;;;;14.60;100.00;99803.16;5029444;28;20478;-76
2023/08/01 03:02:51;;;;;;;25.17;17.85;;;;;;;14.59;100.00;99796.19;5013616;28;20037;-76
2023/08/01 03:05:16;;;;;;;29.73;19.98;;;;;;;14.58;100.00;99791.06;5008492;28;20052;-76
2023/08/01 03:07:42;;;;;;;30.65;19.75;;;;;;;14.58;100.00;99791.06;4995553;28;20065;-76
2023/08/01 03:10:08;;;;;;;28.23;21.20;;;;;;;14.58;100.00;99781.31;5001100;28;20050;-76
2023/08/01 03:12:33;;;;;;;31.90;21.65;;;;;;;14.60;100.00;99787.25;5011727;28;20034;-76
2023/08/01 03:14:59;;;;;;;29.42;20.98;;;;;;;14.59;100.00;99800.66;5010847;28;20052;-76
2023/08/01 03:17:24;;;;;;;28.90;21.83;;;;;;;14.59;100.00;99793.53;4994396;28;20061;-76
2023/08/01 03:19:49;;;;;;;25.98;21.13;;;;;;;14.60;100.00;99795.19;5011070;28;20026;-76
2023/08/01 03:22:15;;;;;;;38.42;23.38;;;;;;;14.60;100.00;99789.09;5010606;28;20037;-77
2023/08/01 03:24:41;;;;;;;30.67;23.30;;;;;;;14.60;100.00;99791.72;5010388;28;20030;-76
2023/08/01 03:27:09;;;;;;;33.90;23.38;;;;;;;14.59;100.00;99792.72;4993600;28;20025;-76
2023/08/01 03:29:35;;;;;;;31.60;23.27;;;;;;;14.59;100.00;99796.19;4997733;28;20022;-76
2023/08/01 03:32:00;;;;;;;30.40;23.33;;;;;;;14.60;100.00;99794.38;5011861;28;20087;-76
2023/08/01 03:34:26;;;;;;;33.58;24.08;;;;;;;14.61;100.00;99794.22;5011859;28;20398;-76
2023/08/01 03:36:52;;;;;;;38.22;25.27;;;;;;;14.62;100.00;99797.69;5010403;28;20048;-76
2023/08/01 03:39:18;;;;;;;35.53;25.15;;;;;;;14.65;100.00;99800.00;5011656;28;20538;-75
2023/08/01 03:41:43;;;;;;;37.30;26.42;;;;;;;14.63;100.00;99794.03;5011279;28;20036;-76
2023/08/01 03:44:08;;;;;;;39.58;27.27;;;;;;;14.63;100.00;99801.97;4990091;28;20034;-76
2023/08/01 03:46:34;;;;;;;37.85;26.67;;;;;;;14.65;100.00;99802.66;5011171;28;20474;-76
2023/08/01 03:48:59;;;;;;;36.70;27.08;;;;;;;14.63;100.00;99809.94;5010508;28;20117;-76
2023/08/01 03:51:24;;;;;;;39.97;26.45;;;;;;;14.63;100.00;99807.28;4992481;28;20025;-75
2023/08/01 03:53:50;;;;;;;41.05;27.67;;;;;;;14.62;100.00;99808.28;5010712;28;20123;-75
2023/08/01 03:56:15;;;;;;;41.63;28.83;;;;;;;14.63;100.00;99799.34;4999933;28;20042;-75
2023/08/01 03:58:40;;;;;;;42.03;28.17;;;;;;;14.62;100.00;99808.28;4989240;28;20510;-75
2023/08/01 04:01:06;;;;;;;40.17;27.75;;;;;;;14.63;100.00;99804.63;4989399;28;20041;-76
2023/08/01 04:03:32;;;;;;;39.35;28.52;;;;;;;14.62;100.00;99800.34;5011033;28;20026;-75
2023/08/01 04:05:57;;;;;;;39.45;29.58;;;;;;;14.62;100.00;99797.69;5030215;28;20067;-75
2023/08/01 04:08:22;;;;;;;38.75;28.50;;;;;;;14.63;100.00;99796.69;5030140;28;20052;-75
2023/08/01 04:10:49;;;;;;;37.80;29.05;;;;;;;14.61;100.00;99796.03;5028057;28;20462;-76
2023/08/01 04:13:15;;;;;;;35.92;29.00;;;;;;;14.62;100.00;99797.69;5011191;28;20433;-75
2023/08/01 04:15:40;;;;;;;43.17;28.45;;;;;;;14.60;100.00;99800.50;5012217;28;20092;-76
2023/08/01 04:18:05;;;;;;;37.40;27.88;;;;;;;14.61;100.00;99798.69;5026611;28;20113;-75
2023/08/01 04:20:31;;;;;;;37.00;27.00;;;;;;;14.61;100.00;99799.50;5030393;28;20057;-75
2023/08/01 04:22:56;;;;;;;38.50;27.50;;;;;;;14.60;100.00;99794.38;5027326;28;20055;-76
2023/08/01 04:25:23;;;;;;;41.38;26.90;;;;;;;14.61;100.00;99801.31;5014399;28;20462;-75
2023/08/01 04:27:49;;;;;;;42.13;28.23;;;;;;;14.62;100.00;99797.69;5027380;28;20105;-76
2023/08/01 04:30:14;;;;;;;37.28;26.98;;;;;;;14.62;100.00;99797.69;5010688;28;20108;-76
2023/08/01 04:32:39;;;;;;;39.70;27.10;;;;;;;14.63;100.00;99794.03;5017113;28;20056;-76
2023/08/01 04:35:05;;;;;;;38.20;27.40;;;;;;;14.62;100.00;99792.38;5030048;28;20077;-76
2023/08/01 04:37:30;;;;;;;43.17;27.20;;;;;;;14.65;100.00;99795.53;5029731;28;20025;-76
2023/08/01 04:39:56;;;;;;;37.65;26.80;;;;;;;14.68;100.00;99799.66;5010363;28;20013;-76
2023/08/01 04:42:21;;;;;;;40.05;27.88;;;;;;;14.67;100.00;99800.66;5002765;28;20477;-76
2023/08/01 04:44:46;;;;;;;38.58;27.17;;;;;;;14.68;100.00;99803.13;5030100;28;20029;-75
2023/08/01 04:47:13;;;;;;;40.40;25.95;;;;;;;14.69;100.00;99798.66;5028536;28;20049;-75
2023/08/01 04:49:38;;;;;;;37.92;26.88;;;;;;;14.70;100.00;99800.31;5029801;28;20401;-75
2023/08/01 04:52:04;;;;;;;39.60;26.67;;;;;;;14.69;100.00;99810.09;5029792;28;20029;-76
2023/08/01 04:54:30;;;;;;;35.05;25.90;;;;;;;14.70;100.00;99818.88;5028929;28;20106;-76
2023/08/01 04:56:55;;;;;;;39.63;25.85;;;;;;;14.71;100.00;99818.69;5010861;28;20030;-75
2023/08/01 04:59:21;;;;;;;38.83;25.27;;;;;;;14.75;100.00;99819.19;4991509;28;20112;-75
2023/08/01 05:01:46;;;;;;;37.05;25.83;;;;;;;14.72;100.00;99815.06;4992013;28;20342;-76
2023/08/01 05:04:11;;;;;;;37.10;25.60;;;;;;;14.74;100.00;99807.78;5017100;28;20049;-76
2023/08/01 05:06:37;;;;;;;38.55;26.05;;;;;;;14.76;100.00;99814.72;5009460;28;20117;-75
2023/08/01 05:09:02;;;;;;;38.47;25.90;;;;;;;14.74;100.00;99813.06;5008128;28;20490;-76
2023/08/01 05:11:28;;;;;;;38.58;25.00;;;;;;;14.76;100.00;99820.84;4986127;28;20705;-76
2023/08/01 05:13:53;;;;;;;33.05;24.48;;;;;;;14.75;100.00;99816.53;4990777;28;20106;-76
2023/08/01 05:16:18;;;;;;;32.20;24.17;;;;;;;14.79;100.00;99822.34;4972838;28;20114;-76
2023/08/01 05:18:44;;;;;;;35.55;24.63;;;;;;;14.79;100.00;99820.50;4989999;28;20081;-76
2023/08/01 05:21:10;;;;;;;36.72;24.40;;;;;;;14.77;100.00;99819.84;4989390;28;20117;-75
2023/08/01 05:23:35;;;;;;;30.98;22.83;;;;;;;14.77;100.00;99822.50;5003470;28;20068;-76
2023/08/01 05:26:01;;;;;;;30.63;22.80;;;;;;;14.75;100.00;99819.19;4991577;28;20542;-76
2023/08/01 05:28:26;;;;;;;33.10;22.88;;;;;;;14.75;100.00;99819.19;4987465;28;20112;-76
2023/08/01 05:30:51;;;;;;;33.90;22.48;;;;;;;14.76;100.00;99825.31;5008258;28;20036;-76
2023/08/01 05:33:16;;;;;;;31.73;22.25;;;;;;;14.77;100.00;99833.09;5009918;28;20065;-75
2023/08/01 05:35:42;;;;;;;34.97;22.77;;;;;;;14.77;100.00;99826.97;5009104;28;20033;-76
2023/08/01 05:38:10;;;;;;;32.38;21.60;;;;;;;14.80;100.00;99831.94;5009869;28;20075;-76
2023/08/01 05:40:39;;;;;;;29.08;20.95;;;;;;;14.86;100.00;99828.66;5011043;28;20034;-76
2023/08/01 05:43:05;;;;;;;30.20;21.73;;;;;;;14.89;100.00;99826.50;4994134;28;20445;-76
2023/08/01 05:45:30;;;;;;;32.35;20.95;;;;;;;14.94;100.00;99816.22;4994107;28;20028;-76
2023/08/01 05:47:55;;;;;;;29.52;21.08;;;;;;;14.98;100.00;99830.78;4990086;28;20081;-76
2023/08/01 05:50:21;;;;;;;31.52;21.70;;;;;;;15.03;100.00;99828.47;4976572;28;20065;-76
2023/08/01 05:52:46;;;;;;;27.80;20.77;;;;;;;15.09;100.00;99831.44;4991586;28;20490;-76
2023/08/01 05:55:11;;;;;;;33.88;20.20;;;;;;;15.10;100.00;99838.38;5009152;28;20113;-76
2023/08/01 05:57:37;;;;;;;31.98;20.40;;;;;;;15.11;100.00;99840.03;5008557;28;20076;-76
2023/08/01 06:00:05;;;;;;;28.73;20.23;;;;;;;15.11;100.00;99832.91;5005089;28;20061;-77
2023/08/01 06:02:34;;;;;;;27.38;20.05;;;;;;;15.21;100.00;99844.19;5008288;28;20030;-76
2023/08/01 06:04:59;;;;;;;26.42;18.92;;;;;;;15.26;100.00;99844.50;5021931;28;20045;-77
2023/08/01 06:07:25;;;;;;;27.60;19.15;;;;;;;15.33;100.00;99840.19;5028488;28;20600;-77
2023/08/01 06:09:51;;;;;;;30.40;18.90;;;;;;;15.45;100.00;99845.94;5026959;28;20029;-76
2023/08/01 06:12:19;;;;;;;24.48;18.70;;;;;;;15.54;100.00;99839.63;5023759;28;20440;-77
2023/08/01 06:14:46;;;;;;;27.73;17.65;;;;;;;15.61;100.00;99845.97;5010998;28;20062;-77
2023/08/01 06:17:11;;;;;;;27.17;18.13;;;;;;;15.73;100.00;99856.19;4995185;28;20049;-76
2023/08/01 06:19:37;;;;;;;26.15;17.80;;;;;;;15.75;100.00;99857.66;5008145;28;20465;-77
2023/08/01 06:22:02;;;;;;;25.20;17.40;;;;;;;15.71;100.00;99850.22;5025359;28;20038;-76
2023/08/01 06:24:28;;;;;;;23.40;17.35;;;;;;;15.73;100.00;99853.53;5026077;28;20649;-76
2023/08/01 06:26:53;;;;;;;32.75;18.60;;;;;;;15.68;100.00;99847.91;5009922;28;20035;-76
2023/08/01 06:29:18;;;;;;;26.83;18.67;;;;;;;15.66;100.00;99851.56;4998928;28;20025;-75
2023/08/01 06:31:44;;;;;;;27.15;19.52;;;;;;;15.70;100.00;99856.53;5027372;28;20041;-76
2023/08/01 06:34:09;;;;;;;26.35;18.92;;;;;;;15.75;100.00;99854.19;5029066;28;20473;-75
2023/08/01 06:36:35;;;;;;;29.40;19.27;;;;;;;15.80;100.00;99854.50;5030919;28;20049;-74
2023/08/01 06:39:00;;;;;;;24.48;18.77;;;;;;;15.85;100.00;99860.13;5031991;28;20025;-75
2023/08/01 06:41:26;;;;;;;27.08;17.10;;;;;;;15.90;100.00;99863.06;5023523;28;20359;-75
2023/08/01 06:43:51;;;;;;;24.48;17.45;;;;;;;15.95;100.00;99861.56;5005625;28;20063;-75
2023/08/01 06:46:16;;;;;;;25.20;17.45;;;;;;;16.04;100.00;99854.41;5028601;28;20105;-75
2023/08/01 06:48:42;;;;;;;26.33;17.25;;;;;;;16.10;100.00;99859.03;5028861;28;20044;-75
2023/08/01 06:51:16;;;;;;;22.17;16.75;;;;;;;16.22;100.00;99862.94;5028700;28;20018;-76
2023/08/01 06:53:46;;;;;;;23.95;16.88;;;;;;;16.28;100.00;99862.25;5027288;28;20076;-76
2023/08/01 06:56:31;;;;;;;24.98;16.20;;;;;;;16.32;100.00;99872.50;5023633;28;20013;-76
2023/08/01 06:58:57;;;;;;;22.17;14.60;;;;;;;16.23;100.00;99875.22;5007222;28;20359;-76
2023/08/01 07:01:22;;;;;;;20.08;14.00;;;;;;;16.17;100.00;99867.94;5030546;28;20025;-76
2023/08/01 07:03:48;;;;;;;18.60;13.43;;;;;;;16.15;100.00;99875.25;5030590;28;20048;-76
2023/08/01 07:06:15;;;;;;;21.45;13.75;;;;;;;16.19;100.00;99881.88;5030743;28;20160;-77
2023/08/01 07:08:44;;;;;;;21.10;12.70;;;;;;;16.27;100.00;99881.00;5031805;28;20025;-76
2023/08/01 07:11:09;;;;;;;16.42;12.25;;;;;;;16.38;100.00;99882.41;5013521;28;20024;-78
2023/08/01 07:13:42;;;;;;;16.42;11.63;;;;;;;16.51;100.00;99888.00;5012861;28;20363;-77
2023/08/01 07:16:10;;;;;;;19.13;11.20;;;;;;;16.55;100.00;99897.28;5031628;28;20047;-76
2023/08/01 07:18:38;;;;;;;20.38;11.13;;;;;;;16.63;100.00;99891.91;5013110;28;20706;-76
2023/08/01 07:21:04;;;;;;;14.93;9.98;;;;;;;16.71;100.00;99878.59;5029813;28;20393;-76
2023/08/01 07:23:35;;;;;;;16.23;9.57;;;;;;;16.85;100.00;99879.69;5029873;28;20029;-77
2023/08/01 07:26:00;;;;;;;20.10;9.02;;;;;;;16.98;100.00;99881.72;5030120;28;20405;-76
2023/08/01 07:28:25;;;;;;;15.05;8.90;;;;;;;16.88;100.00;99880.16;5004744;28;20021;-75
2023/08/01 07:31:12;;;;;;;15.20;8.57;;;;;;;16.83;100.00;99887.00;5027052;28;20030;-75
2023/08/01 07:33:37;;;;;;;15.85;8.90;;;;;;;16.70;100.00;99887.56;5029837;28;20389;-77
2023/08/01 07:36:05;;;;;;;15.52;8.90;;;;;;;16.68;100.00;99888.75;5030631;28;20017;-76
2023/08/01 07:38:36;;;;;;;15.15;8.05;;;;;;;16.81;100.00;99889.84;5029508;28;20034;-76
2023/08/01 07:41:04;;;;;;;18.13;8.07;;;;;;;17.03;100.00;99887.34;5011733;28;20040;-76
2023/08/01 07:43:29;;;;;;;14.50;7.85;;;;;;;17.03;100.00;99888.16;5029239;28;20036;-77
2023/08/01 07:45:59;;;;;;;13.98;7.57;;;;;;;17.07;100.00;99891.28;5030326;28;20405;-77
2023/08/01 07:48:25;;;;;;;13.20;6.15;;;;;;;17.16;100.00;99895.53;5029518;28;20029;-76
2023/08/01 07:50:50;;;;;;;12.05;5.78;;;;;;;17.41;100.00;99896.16;5029375;28;20033;-76
2023/08/01 07:53:16;;;;;;;10.88;5.72;;;;;;;17.72;100.00;99893.38;5028831;28;20033;-76
2023/08/01 07:55:44;;;;;;;13.20;5.65;;;;;;;17.97;100.00;99897.41;5021862;28;20022;-77
2023/08/01 07:58:09;;;;;;;11.70;5.18;;;;;;;18.03;100.00;99895.84;5018749;28;20025;-77
2023/08/01 08:00:35;;;;;;;9.73;4.32;;;;;;;18.02;100.00;99899.53;5028496;28;20036;-80
2023/08/01 08:03:01;;;;;;;8.35;4.38;;;;;;;18.00;100.00;99886.38;5028161;28;20489;-78
2023/08/01 08:05:26;;;;;;;9.65;4.50;;;;;;;17.83;100.00;99895.56;5027099;28;20040;-79
2023/08/01 08:07:57;;;;;;;8.52;4.40;;;;;;;17.76;100.00;99899.97;5029796;28;20033;-79
2023/08/01 08:10:22;;;;;;;6.63;4.03;;;;;;;17.94;100.00;99900.44;5024085;28;20022;-79
2023/08/01 08:12:48;;;;;;;11.23;4.65;;;;;;;18.09;100.00;99895.13;5010965;28;20492;-78
2023/08/01 08:15:15;;;;;;;9.25;4.95;;;;;;;18.22;100.00;99897.09;5012205;28;20029;-78
2023/08/01 08:17:44;;;;;;;12.05;5.45;;;;;;;18.53;100.00;99892.34;5022990;28;20040;-78
2023/08/01 08:20:09;;;;;;;8.93;4.50;;;;;;;18.77;100.00;99889.34;5025792;28;20025;-77
2023/08/01 08:22:34;;;;;;;13.50;5.05;;;;;;;18.96;97.51;99892.41;5021284;28;20028;-77
2023/08/01 08:25:00;;;;;;;12.60;4.78;;;;;;;18.93;98.03;99892.81;5021261;28;20052;-77
2023/08/01 08:27:25;;;;;;;8.68;4.60;;;;;;;18.87;94.02;99904.22;5030097;28;20544;-77
2023/08/01 08:29:51;;;;;;;8.75;4.25;;;;;;;19.05;95.56;99902.75;5029113;28;20056;-77
2023/08/01 08:32:16;;;;;;;8.57;4.60;;;;;;;19.15;94.35;99912.25;5029025;28;20394;-77
2023/08/01 08:34:44;;;;;;;8.57;5.05;;;;;;;19.14;96.47;99895.44;5028230;28;20139;-78
2023/08/01 08:37:09;;;;;;;10.95;4.80;;;;;;;19.39;95.69;99904.69;5029269;28;20017;-77
2023/08/01 08:39:35;;;;;;;8.75;4.63;;;;;;;19.25;95.96;99896.78;5029524;28;20482;-77
2023/08/01 08:42:01;;;;;;;9.45;4.38;;;;;;;18.88;90.91;99912.03;5028487;28;20071;-77
2023/08/01 08:44:29;;;;;;;9.27;4.75;;;;;;;18.53;92.34;99913.69;5028129;28;20056;-77
2023/08/01 08:47:02;;;;;;;8.90;4.57;;;;;;;18.28;95.71;99920.31;5021191;28;20390;-77
2023/08/01 08:49:32;;;;;;;11.25;4.75;;;;;;;18.06;100.00;99925.59;5026141;28;20223;-78
2023/08/01 08:51:58;;;;;;;9.32;4.30;;;;;;;17.82;100.00;99923.19;5017834;28;20033;-76
2023/08/01 08:54:24;;;;;;;10.88;4.68;;;;;;;17.61;100.00;99925.69;5012185;28;20029;-82
2023/08/01 08:56:50;;;;;;;10.27;4.68;;;;;;;17.61;100.00;99928.34;5017569;28;20033;-78
2023/08/01 08:59:16;;;;;;;8.50;4.07;;;;;;;17.48;100.00;99931.66;5026665;28;20029;-81
2023/08/01 09:01:47;;;;;;;8.70;3.90;;;;;;;17.45;100.00;99940.81;5026610;28;20034;-81
2023/08/01 09:04:13;;;;;;;8.40;3.38;;;;;;;17.35;100.00;99931.44;5029086;28;20493;-87
2023/08/01 09:06:45;;;;;;;6.35;2.75;;;;;;;17.20;100.00;99939.34;5027635;28;20061;-78
2023/08/01 09:09:14;;;;;;;6.78;3.17;;;;;;;17.10;100.00;99936.13;4992874;28;20485;-76
2023/08/01 09:11:47;;;;;;;4.95;2.58;;;;;;;17.08;100.00;99938.94;5008633;28;20237;-76
2023/08/01 09:14:16;;;;;;;9.75;3.13;;;;;;;17.10;100.00;99936.13;5018185;28;20025;-76
2023/08/01 09:16:47;;;;;;;7.57;3.08;;;;;;;17.04;100.00;99947.47;5010154;28;20037;-76
2023/08/01 09:19:17;;;;;;;6.18;3.05;;;;;;;16.98;100.00;99949.00;5028521;28;20030;-77
2023/08/01 09:21:43;;;;;;;11.27;3.40;;;;;;;16.91;100.00;99948.88;5026912;28;20030;-76
2023/08/01 09:24:15;;;;;;;8.65;4.28;;;;;;;16.84;100.00;99947.13;5028639;28;20079;-76
2023/08/01 09:26:41;;;;;;;;;;;;;;;17.00;100.00;99959.44;5026179;28;20022;-76
2023/08/01 09:29:09;;;;;;;11.48;4.18;;;;;;;16.66;100.00;99960.66;5022251;28;19909;-76
2023/08/01 09:31:40;;;;;;;8.20;3.60;;;;;;;16.65;100.00;99958.97;5009781;28;20032;-76
2023/08/01 09:34:17;;;;;;;8.43;3.47;;;;;;;16.59;100.00;99954.34;5022866;28;20029;-76
2023/08/01 09:36:42;;;;;;;5.75;2.33;;;;;;;16.39;100.00;99959.25;5026458;28;20393;-78
2023/08/01 09:39:16;;;;;;;4.88;1.90;;;;;;;16.28;100.00;99959.63;5026847;28;20048;-78
2023/08/01 09:41:42;;;;;;;5.03;1.92;;;;;;;16.11;100.00;99953.56;5019912;28;20037;-77
2023/08/01 09:44:16;;;;;;;6.00;2.20;;;;;;;16.05;100.00;99956.06;5014939;28;20030;-77
2023/08/01 09:46:43;;;;;;;5.15;2.05;;;;;;;16.01;100.00;99960.03;5026906;28;20038;-77
2023/08/01 09:49:29;;;;;;;6.72;2.38;;;;;;;16.13;100.00;99964.84;5027086;28;20156;-77
2023/08/01 09:52:01;;;;;;;5.25;2.30;;;;;;;16.15;100.00;99957.53;5028035;28;20155;-76
2023/08/01 09:54:26;;;;;;;5.40;2.45;;;;;;;16.38;100.00;99962.06;5027883;28;20532;-76
2023/08/01 09:56:53;;;;;;;4.30;2.45;;;;;;;16.52;100.00;99961.38;5015644;28;20022;-77
2023/08/01 09:59:21;;;;;;;7.35;2.60;;;;;;;16.65;100.00;99964.28;5028048;28;20030;-77
2023/08/01 10:01:50;;;;;;;5.40;2.80;;;;;;;16.91;100.00;99964.00;5024825;28;20111;-76
2023/08/01 10:04:20;;;;;;;8.63;3.45;;;;;;;17.16;100.00;99967.31;5020939;28;20525;-76
2023/08/01 10:06:49;;;;;;;10.45;3.92;;;;;;;17.44;100.00;99967.59;5009343;28;20381;-76
2023/08/01 10:09:24;;;;;;;7.05;3.15;;;;;;;17.99;100.00;99975.22;5005917;28;20029;-77
2023/08/01 10:11:51;;;;;;;10.20;3.65;;;;;;;18.46;100.00;99955.41;5010252;28;20043;-76
2023/08/01 10:14:19;;;;;;;10.27;4.00;;;;;;;18.85;100.00;99964.91;5012071;28;20021;-77
2023/08/01 10:16:45;;;;;;;10.02;3.72;;;;;;;18.92;100.00;99960.47;4988235;28;20046;-77
2023/08/01 10:19:17;;;;;;;8.55;3.50;;;;;;;19.05;98.95;99963.25;5005803;28;20033;-76
2023/08/01 10:21:44;;;;;;;9.05;3.45;;;;;;;19.21;98.63;99962.16;5012694;28;20026;-77
2023/08/01 10:24:13;;;;;;;9.57;3.50;;;;;;;19.09;95.85;99967.19;5011962;28;20026;-77
2023/08/01 10:26:39;;;;;;;8.02;3.65;;;;;;;19.01;98.39;99960.16;4995146;28;20029;-77
2023/08/01 10:29:05;;;;;;;8.63;3.53;;;;;;;18.88;99.79;99956.53;5012643;28;20037;-77
2023/08/01 10:31:30;;;;;;;8.90;3.50;;;;;;;18.71;96.06;99956.75;4999353;28;20109;-76
2023/08/01 10:34:25;;;;;;;8.95;3.70;;;;;;;18.62;99.34;99975.69;4982272;28;20128;-76
2023/08/01 10:36:57;;;;;;;9.10;3.08;;;;;;;18.44;99.65;99970.75;5000041;28;20129;-76
2023/08/01 10:39:24;;;;;;;9.35;3.50;;;;;;;18.39;98.91;99965.94;4994693;28;20082;-76
2023/08/01 10:42:05;;;;;;;9.15;3.58;;;;;;;18.39;98.19;99971.28;5012435;28;20029;-76
2023/08/01 10:44:33;;;;;;;9.75;3.50;;;;;;;18.31;98.39;99989.19;4986066;28;20447;-76
2023/08/01 10:47:03;;;;;;;8.48;3.35;;;;;;;18.25;99.00;99981.94;5012031;28;20026;-76
2023/08/01 10:49:44;;;;;;;9.82;3.45;;;;;;;18.22;97.72;99974.34;5011397;28;20474;-76
2023/08/01 10:52:33;;;;;;;9.93;3.50;;;;;;;18.12;100.00;99974.63;5001492;28;20117;-74
2023/08/01 10:55:00;;;;;;;8.10;3.25;;;;;;;17.97;97.81;99987.91;4986321;28;20198;-76
2023/08/01 10:57:30;;;;;;;10.43;3.17;;;;;;;17.93;97.97;99991.94;4987497;28;20022;-76
2023/08/01 10:59:57;;;;;;;10.07;3.42;;;;;;;18.08;99.31;99999.94;5000634;28;20037;-76
2023/08/01 11:02:27;;;;;;;10.30;3.20;;;;;;;18.10;99.28;100008.59;5000312;28;20034;-76
2023/08/01 11:05:04;;;;;;;10.18;3.45;;;;;;;18.08;98.44;100008.75;5004982;28;20086;-76
2023/08/01 11:07:30;;;;;;;8.93;3.22;;;;;;;17.99;98.45;100001.03;4999850;28;20041;-76
2023/08/01 11:10:12;;;;;;;8.32;3.25;;;;;;;17.90;100.00;100008.28;5006030;28;20029;-76
2023/08/01 11:12:44;;;;;;;9.18;3.22;;;;;;;17.69;97.36;100010.81;5000911;28;20026;-76
2023/08/01 11:15:11;;;;;;;9.05;2.95;;;;;;;17.53;99.81;100004.56;5005218;28;20025;-76